Ambia, Indiana
Current Conditions -  °F | °C
As of 9:55 PM on Sunday 23 Nov 2014 (Local Time) from KDNV Reporting Station
Moderate Rain Moderate Rain  
Wind Chill: 11°   Ceiling: 300
Heat Index: 11°   Visibility: 7mi
Dew Point: 10°   Wind: 5mph
Humidity: 99%   Direction: 160°SSE
Pressure: 29.17"   Gusts: NA
Location:  40.49°N, 87.52°W
Report Text: KDNV 240255Z AUTO 16004KT 7SM RA OVC003 11/10 A2917 RMK AO2 P0008 60027 T01050103
Loading
Personal Weather Stations






























Interactive Weather Map New forecast layout! Learn more

10-Day Weather Forecast

Advertisements
Track Severe Weather on mobile